Bagwell, Texas
Current Conditions -  °F | °C
As of 5:55 AM on Thursday 27 Nov 2014 (Local Time) from KPRX Reporting Station
Clear Clear  
Wind Chill: 30°   Ceiling: Unl
Heat Index: 36°   Visibility: 10mi
Dew Point: 25°   Wind: 7mph
Humidity: 65%   Direction: 340°NNW
Pressure: 30.52"   Gusts: NA
Location:  33.66°N, 95.16°W
Report Text: KPRX 271155Z 34006KT 10SM CLR 02/M04 A3052 RMK AO1 10070 20020 52014
Loading
Personal Weather Stations






























Interactive Weather Map New forecast layout! Learn more

10-Day Weather Forecast

Advertisements
Track Severe Weather on mobile